sensor_id;sensor_type;location;lat;lon;timestamp;P1;durP1;ratioP1;P2;durP2;ratioP2
58069;SDS011;43863;52.256;21.048;2022-09-09T00:03:53;30.17;;;14.63;;
58069;SDS011;43863;52.256;21.048;2022-09-09T00:06:28;40.40;;;16.27;;
58069;SDS011;43863;52.256;21.048;2022-09-09T00:11:33;34.22;;;16.85;;
58069;SDS011;43863;52.256;21.048;2022-09-09T00:16:45;35.63;;;16.83;;
58069;SDS011;43863;52.256;21.048;2022-09-09T00:19:23;35.60;;;17.55;;
58069;SDS011;43863;52.256;21.048;2022-09-09T00:24:54;34.92;;;16.92;;
58069;SDS011;43863;52.256;21.048;2022-09-09T00:30:18;38.28;;;18.40;;
58069;SDS011;43863;52.256;21.048;2022-09-09T00:32:50;35.97;;;17.98;;
58069;SDS011;43863;52.256;21.048;2022-09-09T00:35:23;38.42;;;17.52;;
58069;SDS011;43863;52.256;21.048;2022-09-09T00:37:58;40.35;;;18.08;;
58069;SDS011;43863;52.256;21.048;2022-09-09T00:40:34;40.22;;;19.33;;
58069;SDS011;43863;52.256;21.048;2022-09-09T00:43:09;42.72;;;19.90;;
58069;SDS011;43863;52.256;21.048;2022-09-09T00:46:01;38.40;;;18.45;;
58069;SDS011;43863;52.256;21.048;2022-09-09T00:54:55;43.33;;;20.13;;
58069;SDS011;43863;52.256;21.048;2022-09-09T00:57:34;37.97;;;18.70;;
58069;SDS011;43863;52.256;21.048;2022-09-09T01:00:22;45.10;;;20.63;;
58069;SDS011;43863;52.256;21.048;2022-09-09T01:05:46;42.38;;;20.25;;
58069;SDS011;43863;52.256;21.048;2022-09-09T01:08:32;40.67;;;20.65;;
58069;SDS011;43863;52.256;21.048;2022-09-09T01:11:03;41.13;;;20.48;;
58069;SDS011;43863;52.256;21.048;2022-09-09T01:13:33;42.50;;;19.80;;
58069;SDS011;43863;52.256;21.048;2022-09-09T01:16:08;42.08;;;21.10;;
58069;SDS011;43863;52.256;21.048;2022-09-09T01:18:44;38.95;;;19.27;;
58069;SDS011;43863;52.256;21.048;2022-09-09T01:27:27;44.22;;;20.63;;
58069;SDS011;43863;52.256;21.048;2022-09-09T01:29:55;40.53;;;20.05;;
58069;SDS011;43863;52.256;21.048;2022-09-09T01:32:40;44.03;;;20.73;;
58069;SDS011;43863;52.256;21.048;2022-09-09T01:38:16;40.60;;;19.55;;
58069;SDS011;43863;52.256;21.048;2022-09-09T01:40:47;39.43;;;20.73;;
58069;SDS011;43863;52.256;21.048;2022-09-09T01:43:15;42.55;;;20.00;;
58069;SDS011;43863;52.256;21.048;2022-09-09T01:45:43;40.45;;;21.02;;
58069;SDS011;43863;52.256;21.048;2022-09-09T01:48:14;39.58;;;19.42;;
58069;SDS011;43863;52.256;21.048;2022-09-09T01:53:13;36.45;;;19.27;;
58069;SDS011;43863;52.256;21.048;2022-09-09T01:55:46;37.97;;;19.02;;
58069;SDS011;43863;52.256;21.048;2022-09-09T01:58:54;34.90;;;18.38;;
58069;SDS011;43863;52.256;21.048;2022-09-09T02:04:45;38.50;;;20.25;;
58069;SDS011;43863;52.256;21.048;2022-09-09T02:13:07;34.30;;;18.95;;
58069;SDS011;43863;52.256;21.048;2022-09-09T02:18:27;33.05;;;18.15;;
58069;SDS011;43863;52.256;21.048;2022-09-09T02:21:00;30.63;;;17.08;;
58069;SDS011;43863;52.256;21.048;2022-09-09T02:23:30;32.80;;;18.40;;
58069;SDS011;43863;52.256;21.048;2022-09-09T02:26:03;38.03;;;18.60;;
58069;SDS011;43863;52.256;21.048;2022-09-09T02:28:32;38.83;;;18.63;;
58069;SDS011;43863;52.256;21.048;2022-09-09T02:31:02;36.33;;;18.80;;
58069;SDS011;43863;52.256;21.048;2022-09-09T02:33:38;34.25;;;19.52;;
58069;SDS011;43863;52.256;21.048;2022-09-09T02:36:09;32.03;;;16.92;;
58069;SDS011;43863;52.256;21.048;2022-09-09T02:38:47;32.28;;;18.48;;
58069;SDS011;43863;52.256;21.048;2022-09-09T02:41:23;32.75;;;17.98;;
58069;SDS011;43863;52.256;21.048;2022-09-09T02:43:55;36.15;;;19.50;;
58069;SDS011;43863;52.256;21.048;2022-09-09T02:49:09;34.88;;;19.02;;
58069;SDS011;43863;52.256;21.048;2022-09-09T02:51:44;33.85;;;18.27;;
58069;SDS011;43863;52.256;21.048;2022-09-09T02:54:31;34.78;;;19.23;;
58069;SDS011;43863;52.256;21.048;2022-09-09T02:57:12;36.40;;;19.02;;
58069;SDS011;43863;52.256;21.048;2022-09-09T02:59:48;35.35;;;17.98;;
58069;SDS011;43863;52.256;21.048;2022-09-09T03:02:18;34.22;;;18.90;;
58069;SDS011;43863;52.256;21.048;2022-09-09T03:04:50;34.65;;;19.10;;
58069;SDS011;43863;52.256;21.048;2022-09-09T03:07:20;33.45;;;18.98;;
58069;SDS011;43863;52.256;21.048;2022-09-09T03:09:50;35.88;;;19.75;;
58069;SDS011;43863;52.256;21.048;2022-09-09T03:12:18;36.33;;;19.35;;
58069;SDS011;43863;52.256;21.048;2022-09-09T03:14:45;36.75;;;21.58;;
58069;SDS011;43863;52.256;21.048;2022-09-09T03:17:13;38.22;;;20.13;;
58069;SDS011;43863;52.256;21.048;2022-09-09T03:19:49;33.92;;;19.30;;
58069;SDS011;43863;52.256;21.048;2022-09-09T03:22:17;35.67;;;20.77;;
58069;SDS011;43863;52.256;21.048;2022-09-09T03:24:46;34.25;;;19.85;;
58069;SDS011;43863;52.256;21.048;2022-09-09T03:27:14;35.30;;;19.88;;
58069;SDS011;43863;52.256;21.048;2022-09-09T03:29:42;36.50;;;20.92;;
58069;SDS011;43863;52.256;21.048;2022-09-09T03:32:13;35.78;;;19.27;;
58069;SDS011;43863;52.256;21.048;2022-09-09T03:34:44;31.63;;;18.45;;
58069;SDS011;43863;52.256;21.048;2022-09-09T03:37:18;37.72;;;19.58;;
58069;SDS011;43863;52.256;21.048;2022-09-09T03:39:49;32.13;;;18.15;;
58069;SDS011;43863;52.256;21.048;2022-09-09T03:42:18;36.25;;;19.95;;
58069;SDS011;43863;52.256;21.048;2022-09-09T03:44:49;31.92;;;18.20;;
58069;SDS011;43863;52.256;21.048;2022-09-09T03:47:20;31.17;;;16.95;;
58069;SDS011;43863;52.256;21.048;2022-09-09T03:49:55;32.38;;;17.70;;
58069;SDS011;43863;52.256;21.048;2022-09-09T03:52:22;29.05;;;17.48;;
58069;SDS011;43863;52.256;21.048;2022-09-09T03:54:53;34.35;;;17.30;;
58069;SDS011;43863;52.256;21.048;2022-09-09T03:57:21;29.50;;;17.10;;
58069;SDS011;43863;52.256;21.048;2022-09-09T03:59:50;29.25;;;17.35;;
58069;SDS011;43863;52.256;21.048;2022-09-09T04:02:17;28.02;;;17.13;;
58069;SDS011;43863;52.256;21.048;2022-09-09T04:04:45;25.20;;;16.05;;
58069;SDS011;43863;52.256;21.048;2022-09-09T04:07:13;25.85;;;15.35;;
58069;SDS011;43863;52.256;21.048;2022-09-09T04:09:41;30.30;;;16.95;;
58069;SDS011;43863;52.256;21.048;2022-09-09T04:12:09;24.30;;;15.50;;
58069;SDS011;43863;52.256;21.048;2022-09-09T04:14:41;25.20;;;14.70;;
58069;SDS011;43863;52.256;21.048;2022-09-09T04:17:09;26.52;;;15.27;;
58069;SDS011;43863;52.256;21.048;2022-09-09T04:19:38;29.05;;;16.73;;
58069;SDS011;43863;52.256;21.048;2022-09-09T04:22:06;26.42;;;14.57;;
58069;SDS011;43863;52.256;21.048;2022-09-09T04:24:33;30.00;;;16.77;;
58069;SDS011;43863;52.256;21.048;2022-09-09T04:27:02;24.98;;;14.80;;
58069;SDS011;43863;52.256;21.048;2022-09-09T04:29:33;26.38;;;14.93;;
58069;SDS011;43863;52.256;21.048;2022-09-09T04:32:01;25.05;;;15.70;;
58069;SDS011;43863;52.256;21.048;2022-09-09T04:34:29;26.02;;;14.75;;
58069;SDS011;43863;52.256;21.048;2022-09-09T04:36:58;22.50;;;14.05;;
58069;SDS011;43863;52.256;21.048;2022-09-09T04:39:27;21.10;;;14.00;;
58069;SDS011;43863;52.256;21.048;2022-09-09T04:41:55;24.60;;;14.25;;
58069;SDS011;43863;52.256;21.048;2022-09-09T04:44:23;26.52;;;16.33;;
58069;SDS011;43863;52.256;21.048;2022-09-09T04:46:51;27.52;;;14.30;;
58069;SDS011;43863;52.256;21.048;2022-09-09T04:49:19;23.60;;;14.60;;
58069;SDS011;43863;52.256;21.048;2022-09-09T04:51:50;23.83;;;13.98;;
58069;SDS011;43863;52.256;21.048;2022-09-09T04:54:18;22.90;;;13.07;;
58069;SDS011;43863;52.256;21.048;2022-09-09T04:56:46;23.10;;;13.63;;
58069;SDS011;43863;52.256;21.048;2022-09-09T04:59:14;22.02;;;13.18;;
58069;SDS011;43863;52.256;21.048;2022-09-09T05:01:46;24.20;;;15.15;;
58069;SDS011;43863;52.256;21.048;2022-09-09T05:04:14;23.85;;;13.98;;
58069;SDS011;43863;52.256;21.048;2022-09-09T05:06:42;21.33;;;13.25;;
58069;SDS011;43863;52.256;21.048;2022-09-09T05:12:05;20.92;;;13.40;;
58069;SDS011;43863;52.256;21.048;2022-09-09T05:14:36;20.95;;;11.82;;
58069;SDS011;43863;52.256;21.048;2022-09-09T05:17:05;19.33;;;11.85;;
58069;SDS011;43863;52.256;21.048;2022-09-09T05:19:36;21.77;;;12.43;;
58069;SDS011;43863;52.256;21.048;2022-09-09T05:22:04;22.98;;;12.68;;
58069;SDS011;43863;52.256;21.048;2022-09-09T05:24:42;23.40;;;14.20;;
58069;SDS011;43863;52.256;21.048;2022-09-09T05:27:10;20.63;;;12.20;;
58069;SDS011;43863;52.256;21.048;2022-09-09T05:29:40;20.92;;;13.38;;
58069;SDS011;43863;52.256;21.048;2022-09-09T05:32:11;18.98;;;12.27;;
58069;SDS011;43863;52.256;21.048;2022-09-09T05:34:43;18.85;;;11.30;;
58069;SDS011;43863;52.256;21.048;2022-09-09T05:37:11;17.42;;;11.32;;
58069;SDS011;43863;52.256;21.048;2022-09-09T05:39:39;19.98;;;11.25;;
58069;SDS011;43863;52.256;21.048;2022-09-09T05:42:07;20.95;;;11.75;;
58069;SDS011;43863;52.256;21.048;2022-09-09T05:44:35;19.58;;;11.55;;
58069;SDS011;43863;52.256;21.048;2022-09-09T05:47:03;20.65;;;11.70;;
58069;SDS011;43863;52.256;21.048;2022-09-09T05:49:31;17.27;;;11.82;;
58069;SDS011;43863;52.256;21.048;2022-09-09T05:51:59;22.60;;;13.57;;
58069;SDS011;43863;52.256;21.048;2022-09-09T05:54:27;21.83;;;12.00;;
58069;SDS011;43863;52.256;21.048;2022-09-09T05:56:55;21.02;;;12.48;;
58069;SDS011;43863;52.256;21.048;2022-09-09T05:59:23;19.42;;;11.77;;
58069;SDS011;43863;52.256;21.048;2022-09-09T06:01:53;16.63;;;11.18;;
58069;SDS011;43863;52.256;21.048;2022-09-09T06:04:29;20.20;;;12.18;;
58069;SDS011;43863;52.256;21.048;2022-09-09T06:06:59;19.25;;;11.63;;
58069;SDS011;43863;52.256;21.048;2022-09-09T06:09:27;18.48;;;11.70;;
58069;SDS011;43863;52.256;21.048;2022-09-09T06:11:57;19.73;;;11.77;;
58069;SDS011;43863;52.256;21.048;2022-09-09T06:14:32;19.70;;;12.05;;
58069;SDS011;43863;52.256;21.048;2022-09-09T06:17:00;17.40;;;12.00;;
58069;SDS011;43863;52.256;21.048;2022-09-09T06:19:30;19.15;;;11.35;;
58069;SDS011;43863;52.256;21.048;2022-09-09T06:22:00;16.73;;;11.98;;
58069;SDS011;43863;52.256;21.048;2022-09-09T06:24:31;17.60;;;11.70;;
58069;SDS011;43863;52.256;21.048;2022-09-09T06:27:00;17.05;;;10.98;;
58069;SDS011;43863;52.256;21.048;2022-09-09T06:29:32;17.98;;;12.43;;
58069;SDS011;43863;52.256;21.048;2022-09-09T06:32:01;17.83;;;11.93;;
58069;SDS011;43863;52.256;21.048;2022-09-09T06:34:30;20.20;;;12.05;;
58069;SDS011;43863;52.256;21.048;2022-09-09T06:36:59;19.15;;;11.52;;
58069;SDS011;43863;52.256;21.048;2022-09-09T06:39:34;19.35;;;12.15;;
58069;SDS011;43863;52.256;21.048;2022-09-09T06:42:03;20.73;;;12.82;;
58069;SDS011;43863;52.256;21.048;2022-09-09T06:44:57;18.35;;;12.90;;
58069;SDS011;43863;52.256;21.048;2022-09-09T06:47:35;19.88;;;12.93;;
58069;SDS011;43863;52.256;21.048;2022-09-09T06:50:03;20.05;;;12.13;;
58069;SDS011;43863;52.256;21.048;2022-09-09T06:52:35;16.80;;;11.77;;
58069;SDS011;43863;52.256;21.048;2022-09-09T06:55:03;20.25;;;12.75;;
58069;SDS011;43863;52.256;21.048;2022-09-09T06:57:32;20.27;;;12.27;;
58069;SDS011;43863;52.256;21.048;2022-09-09T07:00:18;25.80;;;14.57;;
58069;SDS011;43863;52.256;21.048;2022-09-09T07:02:46;20.17;;;11.77;;
58069;SDS011;43863;52.256;21.048;2022-09-09T07:05:14;20.65;;;12.70;;
58069;SDS011;43863;52.256;21.048;2022-09-09T07:07:45;22.92;;;14.18;;
58069;SDS011;43863;52.256;21.048;2022-09-09T07:10:15;21.70;;;14.00;;
58069;SDS011;43863;52.256;21.048;2022-09-09T07:12:44;22.58;;;13.15;;
58069;SDS011;43863;52.256;21.048;2022-09-09T07:15:23;21.75;;;14.02;;
58069;SDS011;43863;52.256;21.048;2022-09-09T07:17:51;24.08;;;14.65;;
58069;SDS011;43863;52.256;21.048;2022-09-09T07:20:20;25.83;;;14.82;;
58069;SDS011;43863;52.256;21.048;2022-09-09T07:22:49;23.13;;;14.25;;
58069;SDS011;43863;52.256;21.048;2022-09-09T07:25:17;23.88;;;15.43;;
58069;SDS011;43863;52.256;21.048;2022-09-09T07:27:46;26.95;;;15.50;;
58069;SDS011;43863;52.256;21.048;2022-09-09T07:30:14;25.55;;;15.45;;
58069;SDS011;43863;52.256;21.048;2022-09-09T07:32:51;22.75;;;14.45;;
58069;SDS011;43863;52.256;21.048;2022-09-09T07:35:19;22.23;;;14.93;;
58069;SDS011;43863;52.256;21.048;2022-09-09T07:37:48;23.65;;;15.65;;
58069;SDS011;43863;52.256;21.048;2022-09-09T07:40:19;24.08;;;14.75;;
58069;SDS011;43863;52.256;21.048;2022-09-09T07:42:49;24.60;;;15.40;;
58069;SDS011;43863;52.256;21.048;2022-09-09T07:45:17;23.88;;;15.40;;
58069;SDS011;43863;52.256;21.048;2022-09-09T07:47:46;26.88;;;16.40;;
58069;SDS011;43863;52.256;21.048;2022-09-09T07:50:17;28.73;;;16.23;;
58069;SDS011;43863;52.256;21.048;2022-09-09T07:52:45;26.23;;;14.65;;
58069;SDS011;43863;52.256;21.048;2022-09-09T07:58:06;23.83;;;14.63;;
58069;SDS011;43863;52.256;21.048;2022-09-09T08:00:34;24.10;;;14.88;;
58069;SDS011;43863;52.256;21.048;2022-09-09T08:03:04;23.73;;;15.27;;
58069;SDS011;43863;52.256;21.048;2022-09-09T08:05:34;26.23;;;15.50;;
58069;SDS011;43863;52.256;21.048;2022-09-09T08:08:02;26.77;;;15.95;;
58069;SDS011;43863;52.256;21.048;2022-09-09T08:10:32;26.67;;;17.52;;
58069;SDS011;43863;52.256;21.048;2022-09-09T08:13:00;28.42;;;18.00;;
58069;SDS011;43863;52.256;21.048;2022-09-09T08:15:46;28.27;;;16.63;;
58069;SDS011;43863;52.256;21.048;2022-09-09T08:18:14;26.75;;;17.95;;
58069;SDS011;43863;52.256;21.048;2022-09-09T08:20:43;28.83;;;17.55;;
58069;SDS011;43863;52.256;21.048;2022-09-09T08:23:10;26.92;;;17.35;;
58069;SDS011;43863;52.256;21.048;2022-09-09T08:25:38;33.30;;;20.65;;
58069;SDS011;43863;52.256;21.048;2022-09-09T08:28:06;32.88;;;17.92;;
58069;SDS011;43863;52.256;21.048;2022-09-09T08:30:33;29.48;;;18.27;;
58069;SDS011;43863;52.256;21.048;2022-09-09T08:33:01;28.27;;;17.23;;
58069;SDS011;43863;52.256;21.048;2022-09-09T08:35:29;27.60;;;17.02;;
58069;SDS011;43863;52.256;21.048;2022-09-09T08:40:34;27.67;;;16.80;;
58069;SDS011;43863;52.256;21.048;2022-09-09T08:43:15;29.70;;;18.07;;
58069;SDS011;43863;52.256;21.048;2022-09-09T08:45:50;27.63;;;17.35;;
58069;SDS011;43863;52.256;21.048;2022-09-09T08:48:40;26.55;;;16.77;;
58069;SDS011;43863;52.256;21.048;2022-09-09T08:51:40;28.25;;;18.10;;
58069;SDS011;43863;52.256;21.048;2022-09-09T08:54:11;28.13;;;16.77;;
58069;SDS011;43863;52.256;21.048;2022-09-09T08:59:39;31.00;;;19.23;;
58069;SDS011;43863;52.256;21.048;2022-09-09T09:02:13;35.50;;;19.60;;
58069;SDS011;43863;52.256;21.048;2022-09-09T09:11:12;33.88;;;18.73;;
58069;SDS011;43863;52.256;21.048;2022-09-09T09:13:52;34.55;;;19.83;;
58069;SDS011;43863;52.256;21.048;2022-09-09T09:16:30;31.33;;;19.95;;
58069;SDS011;43863;52.256;21.048;2022-09-09T09:19:08;32.65;;;19.33;;
58069;SDS011;43863;52.256;21.048;2022-09-09T09:30:39;34.08;;;20.27;;
58069;SDS011;43863;52.256;21.048;2022-09-09T09:35:57;34.97;;;21.55;;
58069;SDS011;43863;52.256;21.048;2022-09-09T09:38:29;36.05;;;21.50;;
58069;SDS011;43863;52.256;21.048;2022-09-09T09:41:16;35.33;;;20.33;;
58069;SDS011;43863;52.256;21.048;2022-09-09T09:44:34;37.70;;;20.95;;
58069;SDS011;43863;52.256;21.048;2022-09-09T09:47:20;38.72;;;21.33;;
58069;SDS011;43863;52.256;21.048;2022-09-09T09:49:59;37.55;;;22.58;;
58069;SDS011;43863;52.256;21.048;2022-09-09T09:52:35;36.38;;;21.83;;
58069;SDS011;43863;52.256;21.048;2022-09-09T09:55:11;36.38;;;21.67;;
58069;SDS011;43863;52.256;21.048;2022-09-09T09:57:43;37.50;;;21.95;;
58069;SDS011;43863;52.256;21.048;2022-09-09T10:00:14;39.15;;;22.40;;
58069;SDS011;43863;52.256;21.048;2022-09-09T10:02:52;36.33;;;21.27;;
58069;SDS011;43863;52.256;21.048;2022-09-09T10:05:28;42.53;;;23.10;;
58069;SDS011;43863;52.256;21.048;2022-09-09T10:08:13;35.60;;;22.35;;
58069;SDS011;43863;52.256;21.048;2022-09-09T10:16:35;39.80;;;23.47;;
58069;SDS011;43863;52.256;21.048;2022-09-09T10:21:56;40.80;;;22.60;;
58069;SDS011;43863;52.256;21.048;2022-09-09T10:36:24;42.28;;;25.23;;
58069;SDS011;43863;52.256;21.048;2022-09-09T10:39:03;41.30;;;23.50;;
58069;SDS011;43863;52.256;21.048;2022-09-09T10:41:50;42.85;;;25.73;;
58069;SDS011;43863;52.256;21.048;2022-09-09T10:53:37;45.60;;;25.60;;
58069;SDS011;43863;52.256;21.048;2022-09-09T10:56:25;44.25;;;26.33;;
58069;SDS011;43863;52.256;21.048;2022-09-09T11:01:39;50.67;;;30.23;;
58069;SDS011;43863;52.256;21.048;2022-09-09T11:04:15;46.08;;;27.25;;
58069;SDS011;43863;52.256;21.048;2022-09-09T11:06:55;46.33;;;26.85;;
58069;SDS011;43863;52.256;21.048;2022-09-09T11:09:28;47.20;;;27.25;;
58069;SDS011;43863;52.256;21.048;2022-09-09T11:12:03;43.92;;;28.02;;
58069;SDS011;43863;52.256;21.048;2022-09-09T11:14:34;46.47;;;27.50;;
58069;SDS011;43863;52.256;21.048;2022-09-09T11:17:06;48.17;;;28.45;;
58069;SDS011;43863;52.256;21.048;2022-09-09T11:19:42;52.35;;;30.45;;
58069;SDS011;43863;52.256;21.048;2022-09-09T11:24:45;50.60;;;29.58;;
58069;SDS011;43863;52.256;21.048;2022-09-09T11:27:31;51.80;;;30.00;;
58069;SDS011;43863;52.256;21.048;2022-09-09T11:30:22;57.05;;;31.33;;
58069;SDS011;43863;52.256;21.048;2022-09-09T11:36:37;54.65;;;30.15;;
58069;SDS011;43863;52.256;21.048;2022-09-09T11:44:40;55.28;;;31.75;;
58069;SDS011;43863;52.256;21.048;2022-09-09T11:47:16;58.42;;;33.35;;
58069;SDS011;43863;52.256;21.048;2022-09-09T11:53:20;60.45;;;30.35;;
58069;SDS011;43863;52.256;21.048;2022-09-09T11:56:09;58.40;;;31.40;;
58069;SDS011;43863;52.256;21.048;2022-09-09T11:58:43;60.80;;;33.15;;
58069;SDS011;43863;52.256;21.048;2022-09-09T12:01:33;64.50;;;34.05;;
58069;SDS011;43863;52.256;21.048;2022-09-09T12:07:21;55.60;;;31.50;;
58069;SDS011;43863;52.256;21.048;2022-09-09T12:09:57;56.38;;;31.38;;
58069;SDS011;43863;52.256;21.048;2022-09-09T12:12:30;60.58;;;33.20;;
58069;SDS011;43863;52.256;21.048;2022-09-09T12:34:23;64.85;;;34.20;;
58069;SDS011;43863;52.256;21.048;2022-09-09T12:39:55;63.72;;;34.97;;
58069;SDS011;43863;52.256;21.048;2022-09-09T12:42:27;63.55;;;35.63;;
58069;SDS011;43863;52.256;21.048;2022-09-09T12:44:59;65.70;;;36.03;;
58069;SDS011;43863;52.256;21.048;2022-09-09T12:50:31;73.40;;;36.85;;
58069;SDS011;43863;52.256;21.048;2022-09-09T12:53:06;64.45;;;35.55;;
58069;SDS011;43863;52.256;21.048;2022-09-09T12:55:36;73.68;;;37.90;;
58069;SDS011;43863;52.256;21.048;2022-09-09T12:58:06;67.97;;;35.95;;
58069;SDS011;43863;52.256;21.048;2022-09-09T13:00:34;68.43;;;35.53;;
58069;SDS011;43863;52.256;21.048;2022-09-09T13:03:13;64.13;;;33.92;;
58069;SDS011;43863;52.256;21.048;2022-09-09T13:05:44;59.88;;;33.85;;
58069;SDS011;43863;52.256;21.048;2022-09-09T13:08:14;60.90;;;31.60;;
58069;SDS011;43863;52.256;21.048;2022-09-09T13:11:17;67.80;;;32.17;;
58069;SDS011;43863;52.256;21.048;2022-09-09T13:13:50;64.38;;;32.75;;
58069;SDS011;43863;52.256;21.048;2022-09-09T13:16:25;65.80;;;33.58;;
58069;SDS011;43863;52.256;21.048;2022-09-09T13:19:15;61.78;;;32.65;;
58069;SDS011;43863;52.256;21.048;2022-09-09T13:21:44;67.68;;;33.45;;
58069;SDS011;43863;52.256;21.048;2022-09-09T13:26:55;61.15;;;31.55;;
58069;SDS011;43863;52.256;21.048;2022-09-09T13:29:30;66.05;;;35.40;;
58069;SDS011;43863;52.256;21.048;2022-09-09T13:32:03;60.45;;;31.65;;
58069;SDS011;43863;52.256;21.048;2022-09-09T13:34:53;61.85;;;33.28;;
58069;SDS011;43863;52.256;21.048;2022-09-09T13:37:23;62.63;;;31.02;;
58069;SDS011;43863;52.256;21.048;2022-09-09T13:40:04;62.55;;;32.10;;
58069;SDS011;43863;52.256;21.048;2022-09-09T13:42:34;59.53;;;31.95;;
58069;SDS011;43863;52.256;21.048;2022-09-09T13:45:14;63.33;;;31.92;;
58069;SDS011;43863;52.256;21.048;2022-09-09T13:47:48;62.87;;;31.17;;
58069;SDS011;43863;52.256;21.048;2022-09-09T13:50:26;65.22;;;33.53;;
58069;SDS011;43863;52.256;21.048;2022-09-09T13:52:58;57.78;;;30.80;;
58069;SDS011;43863;52.256;21.048;2022-09-09T13:55:27;66.25;;;32.15;;
58069;SDS011;43863;52.256;21.048;2022-09-09T13:57:56;63.63;;;33.30;;
58069;SDS011;43863;52.256;21.048;2022-09-09T14:00:29;64.97;;;33.35;;
58069;SDS011;43863;52.256;21.048;2022-09-09T14:02:58;63.13;;;31.73;;
58069;SDS011;43863;52.256;21.048;2022-09-09T14:05:33;66.60;;;31.23;;
58069;SDS011;43863;52.256;21.048;2022-09-09T14:08:03;62.00;;;31.08;;
58069;SDS011;43863;52.256;21.048;2022-09-09T14:10:33;59.97;;;30.50;;
58069;SDS011;43863;52.256;21.048;2022-09-09T14:13:04;60.83;;;30.88;;
58069;SDS011;43863;52.256;21.048;2022-09-09T14:15:32;65.97;;;31.50;;
58069;SDS011;43863;52.256;21.048;2022-09-09T14:17:59;67.03;;;33.67;;
58069;SDS011;43863;52.256;21.048;2022-09-09T14:20:27;61.55;;;31.27;;
58069;SDS011;43863;52.256;21.048;2022-09-09T14:22:55;61.47;;;33.40;;
58069;SDS011;43863;52.256;21.048;2022-09-09T14:25:29;62.70;;;31.52;;
58069;SDS011;43863;52.256;21.048;2022-09-09T14:27:57;59.17;;;29.73;;
58069;SDS011;43863;52.256;21.048;2022-09-09T14:30:25;66.85;;;31.63;;
58069;SDS011;43863;52.256;21.048;2022-09-09T14:32:53;56.38;;;30.05;;
58069;SDS011;43863;52.256;21.048;2022-09-09T14:35:20;67.50;;;32.40;;
58069;SDS011;43863;52.256;21.048;2022-09-09T14:37:49;62.88;;;33.40;;
58069;SDS011;43863;52.256;21.048;2022-09-09T14:40:18;65.90;;;31.88;;
58069;SDS011;43863;52.256;21.048;2022-09-09T14:42:46;58.58;;;30.13;;
58069;SDS011;43863;52.256;21.048;2022-09-09T14:45:13;65.35;;;33.58;;
58069;SDS011;43863;52.256;21.048;2022-09-09T14:47:41;66.68;;;34.17;;
58069;SDS011;43863;52.256;21.048;2022-09-09T14:50:09;65.20;;;32.40;;
58069;SDS011;43863;52.256;21.048;2022-09-09T14:52:37;65.00;;;32.30;;
58069;SDS011;43863;52.256;21.048;2022-09-09T14:55:05;60.63;;;33.60;;
58069;SDS011;43863;52.256;21.048;2022-09-09T14:57:37;65.57;;;32.33;;
58069;SDS011;43863;52.256;21.048;2022-09-09T15:00:07;62.95;;;32.88;;
58069;SDS011;43863;52.256;21.048;2022-09-09T15:02:36;67.28;;;34.08;;
58069;SDS011;43863;52.256;21.048;2022-09-09T15:05:04;65.32;;;33.78;;
58069;SDS011;43863;52.256;21.048;2022-09-09T15:07:32;88.03;;;43.95;;
58069;SDS011;43863;52.256;21.048;2022-09-09T15:10:01;63.38;;;33.35;;
58069;SDS011;43863;52.256;21.048;2022-09-09T15:12:29;71.50;;;34.83;;
58069;SDS011;43863;52.256;21.048;2022-09-09T15:14:57;76.32;;;41.45;;
58069;SDS011;43863;52.256;21.048;2022-09-09T15:17:25;69.97;;;35.75;;
58069;SDS011;43863;52.256;21.048;2022-09-09T15:19:54;64.72;;;33.67;;
58069;SDS011;43863;52.256;21.048;2022-09-09T15:22:22;65.18;;;33.13;;
58069;SDS011;43863;52.256;21.048;2022-09-09T15:24:55;62.35;;;32.75;;
58069;SDS011;43863;52.256;21.048;2022-09-09T15:27:22;65.35;;;34.47;;
58069;SDS011;43863;52.256;21.048;2022-09-09T15:29:52;62.38;;;33.42;;
58069;SDS011;43863;52.256;21.048;2022-09-09T15:32:20;63.65;;;31.88;;
58069;SDS011;43863;52.256;21.048;2022-09-09T15:34:47;65.45;;;34.55;;
58069;SDS011;43863;52.256;21.048;2022-09-09T15:37:18;62.38;;;34.67;;
58069;SDS011;43863;52.256;21.048;2022-09-09T15:39:45;64.97;;;34.40;;
58069;SDS011;43863;52.256;21.048;2022-09-09T15:42:13;60.88;;;32.38;;
58069;SDS011;43863;52.256;21.048;2022-09-09T15:44:42;60.20;;;33.20;;
58069;SDS011;43863;52.256;21.048;2022-09-09T15:47:11;63.83;;;33.50;;
58069;SDS011;43863;52.256;21.048;2022-09-09T15:49:43;66.90;;;34.35;;
58069;SDS011;43863;52.256;21.048;2022-09-09T15:52:13;58.50;;;34.50;;
58069;SDS011;43863;52.256;21.048;2022-09-09T15:54:43;63.97;;;33.10;;
58069;SDS011;43863;52.256;21.048;2022-09-09T15:57:12;66.93;;;36.17;;
58069;SDS011;43863;52.256;21.048;2022-09-09T15:59:41;61.10;;;33.17;;
58069;SDS011;43863;52.256;21.048;2022-09-09T16:02:08;70.90;;;34.45;;
58069;SDS011;43863;52.256;21.048;2022-09-09T16:04:40;66.28;;;34.15;;
58069;SDS011;43863;52.256;21.048;2022-09-09T16:07:09;60.58;;;32.50;;
58069;SDS011;43863;52.256;21.048;2022-09-09T16:09:37;67.18;;;36.17;;
58069;SDS011;43863;52.256;21.048;2022-09-09T16:12:11;67.32;;;35.90;;
58069;SDS011;43863;52.256;21.048;2022-09-09T16:14:40;62.25;;;33.58;;
58069;SDS011;43863;52.256;21.048;2022-09-09T16:17:08;59.28;;;33.20;;
58069;SDS011;43863;52.256;21.048;2022-09-09T16:19:35;61.17;;;33.42;;
58069;SDS011;43863;52.256;21.048;2022-09-09T16:22:04;56.65;;;31.15;;
58069;SDS011;43863;52.256;21.048;2022-09-09T16:24:33;62.33;;;34.70;;
58069;SDS011;43863;52.256;21.048;2022-09-09T16:27:01;58.53;;;31.92;;
58069;SDS011;43863;52.256;21.048;2022-09-09T16:29:29;63.45;;;32.67;;
58069;SDS011;43863;52.256;21.048;2022-09-09T16:31:57;62.08;;;32.42;;
58069;SDS011;43863;52.256;21.048;2022-09-09T16:34:30;59.78;;;31.88;;
58069;SDS011;43863;52.256;21.048;2022-09-09T16:36:58;58.72;;;32.17;;
58069;SDS011;43863;52.256;21.048;2022-09-09T16:41:57;53.83;;;30.30;;
58069;SDS011;43863;52.256;21.048;2022-09-09T16:44:25;57.70;;;30.90;;
58069;SDS011;43863;52.256;21.048;2022-09-09T16:46:55;56.15;;;32.00;;
58069;SDS011;43863;52.256;21.048;2022-09-09T16:49:27;60.05;;;31.48;;
58069;SDS011;43863;52.256;21.048;2022-09-09T16:51:57;57.47;;;31.38;;
58069;SDS011;43863;52.256;21.048;2022-09-09T16:54:26;60.08;;;34.53;;
58069;SDS011;43863;52.256;21.048;2022-09-09T16:56:54;56.78;;;29.92;;
58069;SDS011;43863;52.256;21.048;2022-09-09T16:59:22;60.33;;;32.60;;
58069;SDS011;43863;52.256;21.048;2022-09-09T17:01:51;58.90;;;32.63;;
58069;SDS011;43863;52.256;21.048;2022-09-09T17:04:24;55.83;;;31.40;;
58069;SDS011;43863;52.256;21.048;2022-09-09T17:07:02;50.75;;;29.58;;
58069;SDS011;43863;52.256;21.048;2022-09-09T17:09:31;56.50;;;30.33;;
58069;SDS011;43863;52.256;21.048;2022-09-09T17:11:59;57.47;;;31.50;;
58069;SDS011;43863;52.256;21.048;2022-09-09T17:14:27;54.70;;;30.33;;
58069;SDS011;43863;52.256;21.048;2022-09-09T17:16:54;55.53;;;30.08;;